Aviation Digital Data Service (ADDS)

Output produced by METARs form (1840 UTC 18 June 2019)
found at http://www.aviationweather.gov/metar/data/
 
KBML 181752Z AUTO 19006KT 10SM FEW090 22/10 A2996 RMK AO2 SLP146 T02220100 10222 20122 56017
KCON 181751Z AUTO 22/12 A2995 RMK AO2 SLP141 T02220122 10228 20167 57014 PWINO $
KCON 181726Z 1818/1918 14005KT P6SM VCSH SCT080 BKN120 
     TEMPO 1818/1822 BKN070 OVC100 
     FM182200 11005KT P6SM OVC035 
     FM190000 00000KT P6SM BKN015 OVC025 
     FM190400 00000KT P6SM OVC007 
     FM191500 15004KT P6SM OVC012
       
KAFN 181752Z AUTO 00000KT 10SM -RA FEW030 SCT050 OVC090 18/14 A2997 RMK AO2 SLP153 P0002 60002 T01780144 10194 20167 58008
KEEN 181756Z AUTO 19005KT 10SM FEW038 19/14 A2995 RMK AO2 RAE20 SLP146 6//// T01890144 10206 20161 58010 PNO $
KLCI 181756Z AUTO 04005KT 10SM FEW050 SCT090 21/12 A2996 RMK AO2 SLP145 T02110117 10211 20172 56017
KLEB 181753Z 33003KT 10SM BKN065 24/12 A2994 RMK AO2 SLP131 T02390117 10239 20161 58016
KLEB 181726Z 1818/1918 VRB04KT P6SM SCT120 BKN200 
     FM182200 VRB03KT P6SM SCT070 SCT120 
     FM190800 00000KT 4SM BR OVC012 
     FM191300 VRB03KT P6SM BKN025 
     FM191500 19004KT P6SM BKN040 BKN090
       
KMHT 181753Z 14005KT 10SM FEW040 BKN130 OVC250 22/13 A2994 RMK AO2 SLP148 T02170133 10217 20189 57012
KMHT 181726Z 1818/1918 09005KT P6SM VCSH SCT080 BKN120 
     TEMPO 1818/1822 BKN070 OVC100 
     FM182200 12005KT P6SM OVC035 
     FM190000 VRB04KT P6SM BKN015 OVC025 
     FM190400 VRB03KT P6SM OVC007 
     FM191500 15004KT P6SM OVC012
       
KASH 181756Z 00000KT 10SM -RA OVC100 19/17 A2996 RMK AO2 SLP156 P0000 60000 T01940172 10211 20178 56008
KPSM 181809Z 13008KT 10SM SCT020 BKN040 OVC130 19/13 A2995 RMK AO2A SLP144
KPSM 181726Z 1818/1918 06005KT P6SM VCSH SCT080 BKN120 
     TEMPO 1818/1822 BKN070 OVC100 
     FM182200 10005KT P6SM OVC035 
     FM190000 14004KT P6SM BKN015 OVC025 
     FM190300 VRB03KT P6SM OVC007 
     FM191500 15004KT P6SM OVC012
       
KDAW 181751Z AUTO VRB04KT 10SM CLR 22/11 A2995 RMK AO2 SLP139 T02170106 10228 20183 56014
KHIE 181726Z 1818/1918 VRB04KT P6SM BKN200 
     FM182200 21004KT P6SM SCT070 SCT120 
     FM190800 00000KT 5SM BR BKN002 
     FM191400 22004KT P6SM SCT035 BKN070 BKN100 AMD NOT SKED